Time;durP1;ratioP1;P1;durP2;ratioP2;P2;SDS_P1;SDS_P2;PMS_P1;PMS_P2;Temp;Humidity;BMP_temperature;BMP_pressure;BME280_temperature;BME280_humidity;BME280_pressure;Samples;Min_cycle;Max_cycle;Signal;HPM_P1;HPM_P2
2023/07/06 00:02:24;;;;;;;37.50;9.70;;;;;;;25.30;66.74;100287.56;5072276;28;20028;-85
2023/07/06 00:04:49;;;;;;;20.17;8.32;;;;;;;25.16;67.14;100269.50;5072371;28;20032;-87
2023/07/06 00:07:21;;;;;;;31.58;8.52;;;;;;;25.15;67.71;100268.66;5073035;28;20028;-84
2023/07/06 00:09:50;;;;;;;30.15;8.57;;;;;;;25.20;67.99;100270.72;5071524;28;20032;-85
2023/07/06 00:12:18;;;;;;;26.80;8.50;;;;;;;25.09;67.87;100264.06;5073701;28;20028;-90
2023/07/06 00:14:44;;;;;;;24.50;8.93;;;;;;;25.11;68.73;100261.06;5074554;28;20039;-85
2023/07/06 00:17:12;;;;;;;21.42;9.43;;;;;;;25.14;69.56;100279.88;5072692;28;20032;-84
2023/07/06 00:19:39;;;;;;;26.83;10.15;;;;;;;25.05;70.14;100273.00;5071259;28;20028;-85
2023/07/06 00:22:05;;;;;;;30.23;10.60;;;;;;;24.87;70.92;100269.16;5072389;28;20421;-84
2023/07/06 00:24:30;;;;;;;19.58;10.98;;;;;;;24.75;71.09;100262.69;5072210;28;20123;-89
2023/07/06 00:26:56;;;;;;;31.48;10.82;;;;;;;24.64;71.75;100271.69;5072135;28;20043;-85
2023/07/06 00:29:22;;;;;;;24.42;10.85;;;;;;;24.57;72.28;100270.88;5071953;28;20063;-86
2023/07/06 00:32:04;;;;;;;43.90;9.95;;;;;;;24.59;72.48;100285.25;5082979;28;20062;-86
2023/07/06 00:34:36;;;;;;;27.25;10.27;;;;;;;24.44;72.70;100265.47;5071945;28;20107;-85
2023/07/06 00:37:02;;;;;;;;;;;;;;;24.61;72.66;100294.13;5072277;28;20493;-85
2023/07/06 00:39:27;;;;;;;36.03;8.18;;;;;;;24.56;70.82;100295.84;5071549;28;20009;-91
2023/07/06 00:41:53;;;;;;;11.18;6.50;;;;;;;24.53;68.76;100291.63;5071921;28;20428;-83
2023/07/06 00:44:47;;;;;;;12.82;5.47;;;;;;;24.57;66.82;100286.53;5071814;28;20038;-87
2023/07/06 00:47:13;;;;;;;9.40;5.72;;;;;;;24.54;66.22;100287.00;5104617;28;20368;-84
2023/07/06 00:49:40;;;;;;;20.25;5.90;;;;;;;24.34;65.66;100244.00;5071540;28;20024;-87
2023/07/06 00:52:07;;;;;;;7.53;5.30;;;;;;;24.55;65.26;100266.69;5072327;28;20021;-88
2023/07/06 00:54:37;;;;;;;15.48;6.47;;;;;;;24.47;65.21;100258.69;5072970;28;20166;-87
2023/07/06 00:57:03;;;;;;;8.48;5.40;;;;;;;24.56;64.90;100271.94;5072812;28;20400;-87
2023/07/06 00:59:32;;;;;;;13.90;5.90;;;;;;;24.49;65.33;100251.09;5079967;28;20107;-85
2023/07/06 01:01:59;;;;;;;15.88;6.25;;;;;;;24.53;65.26;100261.41;5094577;28;20024;-86
2023/07/06 01:04:27;;;;;;;7.05;5.55;;;;;;;24.64;65.21;100276.34;5102294;28;20095;-91
2023/07/06 01:06:54;;;;;;;16.55;7.38;;;;;;;24.54;66.14;100249.34;5114559;28;20023;-93
2023/07/06 01:09:22;;;;;;;18.55;7.55;;;;;;;24.51;66.75;100255.28;5114175;28;20039;-88
2023/07/06 01:11:48;;;;;;;20.25;7.15;;;;;;;24.54;66.84;100260.34;5098024;28;20035;-85
2023/07/06 01:14:14;;;;;;;21.13;7.45;;;;;;;24.54;67.27;100260.34;5093404;28;20031;-87
2023/07/06 01:16:43;;;;;;;12.82;7.82;;;;;;;24.66;68.14;100291.53;5095355;28;20020;-85
2023/07/06 01:19:23;;;;;;;21.40;8.93;;;;;;;24.63;68.47;100289.25;5093522;28;20078;-85
2023/07/06 01:22:24;;;;;;;21.83;8.60;;;;;;;24.61;68.74;100285.88;5092941;28;20031;-84
2023/07/06 01:24:50;;;;;;;18.00;7.32;;;;;;;24.60;68.40;100284.19;5046411;28;20077;-85
2023/07/06 01:27:36;;;;;;;23.75;7.80;;;;;;;24.60;67.31;100286.94;5028738;28;20123;-86
2023/07/06 01:30:07;;;;;;;23.92;7.90;;;;;;;24.63;67.87;100285.63;5011652;28;20049;-84
2023/07/06 01:32:39;;;;;;;12.73;7.50;;;;;;;24.51;67.93;100271.78;5028190;28;20054;-85
2023/07/06 01:35:42;;;;;;;10.40;6.90;;;;;;;24.59;67.15;100290.75;5015190;28;20045;-85
2023/07/06 01:38:08;;;;;;;13.10;6.47;;;;;;;24.51;66.89;100285.53;4989036;28;20042;-89
2023/07/06 01:40:34;;;;;;;20.25;8.40;;;;;;;24.41;67.20;100268.69;4980912;28;20037;-90
2023/07/06 01:42:59;;;;;;;25.67;7.80;;;;;;;24.48;67.72;100288.72;4969096;28;20039;-84
2023/07/06 01:45:25;;;;;;;18.33;7.82;;;;;;;24.50;68.15;100289.34;4968569;28;20110;-86
2023/07/06 01:47:55;;;;;;;25.00;8.52;;;;;;;24.46;68.68;100292.78;4986987;28;20046;-83
2023/07/06 01:50:30;;;;;;;18.80;8.43;;;;;;;24.37;69.15;100292.22;4988720;28;20038;-84
2023/07/06 01:53:12;;;;;;;24.77;10.38;;;;;;;24.52;69.55;100314.72;4989258;28;20121;-84
2023/07/06 01:56:00;;;;;;;;;;;;;;;24.50;69.56;100308.59;4988937;28;20100;-84
2023/07/06 01:58:37;;;;;;;23.95;9.57;;;;;;;24.43;69.83;100313.31;4989163;28;19933;-87
2023/07/06 02:01:09;;;;;;;23.20;9.30;;;;;;;24.35;69.54;100306.16;4969952;28;20134;-84
2023/07/06 02:03:38;;;;;;;24.77;9.15;;;;;;;24.31;70.04;100293.09;5048471;28;20032;-85
2023/07/06 02:06:10;;;;;;;22.38;9.15;;;;;;;24.13;69.94;100268.25;5029323;28;20034;-85
2023/07/06 02:08:41;;;;;;;;;;;;;;;24.40;69.57;100313.75;5028068;28;20212;-86
2023/07/06 02:11:08;;;;;;;19.08;8.70;;;;;;;24.24;69.40;100303.28;5010130;28;19916;-84
2023/07/06 02:13:33;;;;;;;13.48;8.23;;;;;;;24.16;69.65;100284.28;5046413;28;20725;-84
2023/07/06 02:15:59;;;;;;;27.17;10.38;;;;;;;24.19;69.51;100298.44;5068777;28;20029;-84
2023/07/06 02:18:24;;;;;;;26.05;9.90;;;;;;;24.15;69.26;100268.88;5071252;28;20484;-84
2023/07/06 02:20:53;;;;;;;30.02;11.63;;;;;;;24.25;69.27;100291.22;5072565;28;20063;-87
2023/07/06 02:23:18;;;;;;;17.75;8.60;;;;;;;24.15;69.21;100282.63;5081027;28;20090;-85
2023/07/06 02:25:44;;;;;;;25.48;10.50;;;;;;;24.11;69.19;100265.72;5070632;28;20503;-85
2023/07/06 02:28:10;;;;;;;23.40;11.27;;;;;;;24.09;69.36;100264.25;5069946;28;20455;-82
2023/07/06 02:30:37;;;;;;;27.90;12.68;;;;;;;24.22;69.05;100284.25;5070121;28;20034;-85
2023/07/06 02:33:03;;;;;;;27.85;11.43;;;;;;;24.35;69.20;100299.81;5069788;28;20125;-85
2023/07/06 02:35:29;;;;;;;36.78;12.10;;;;;;;24.12;69.29;100283.06;5071118;28;20484;-84
2023/07/06 02:37:54;;;;;;;29.23;13.55;;;;;;;24.12;69.71;100283.06;5070068;28;20532;-84
2023/07/06 02:40:20;;;;;;;37.55;13.32;;;;;;;24.11;69.83;100282.22;5071144;28;20035;-84
2023/07/06 02:42:46;;;;;;;44.80;15.25;;;;;;;24.27;69.88;100300.09;5071008;28;20396;-84
2023/07/06 02:45:11;;;;;;;50.63;13.43;;;;;;;24.06;69.72;100264.69;5071389;28;20032;-86
2023/07/06 02:47:40;;;;;;;20.42;11.23;;;;;;;24.21;69.30;100304.56;5073701;28;20035;-85
2023/07/06 02:50:11;;;;;;;25.05;10.38;;;;;;;24.07;68.66;100280.94;5071459;28;20032;-85
2023/07/06 02:52:37;;;;;;;24.00;10.77;;;;;;;24.13;68.08;100290.22;5070502;28;20024;-84
2023/07/06 02:55:03;;;;;;;21.75;8.40;;;;;;;24.18;67.01;100298.69;5070773;28;20021;-90
2023/07/06 02:57:29;;;;;;;13.52;8.82;;;;;;;24.11;66.65;100292.38;5069166;28;20036;-85
2023/07/06 02:59:56;;;;;;;26.35;9.27;;;;;;;24.17;65.99;100307.97;5070447;28;20097;-85
2023/07/06 03:02:22;;;;;;;33.05;13.75;;;;;;;24.25;67.06;100310.44;5087826;28;20746;-84
2023/07/06 03:04:47;;;;;;;37.22;14.50;;;;;;;24.17;68.79;100310.72;5087675;28;20044;-84
2023/07/06 03:07:13;;;;;;;52.90;16.33;;;;;;;24.14;69.58;100313.91;5087272;28;20032;-84
2023/07/06 03:09:38;;;;;;;46.65;18.20;;;;;;;24.18;69.62;100326.16;5086873;28;20119;-86
2023/07/06 03:12:05;;;;;;;34.38;19.10;;;;;;;23.88;69.99;100287.41;5087188;28;20036;-88
2023/07/06 03:14:32;;;;;;;47.72;18.90;;;;;;;24.00;69.64;100309.53;5087220;28;20032;-88
2023/07/06 03:16:58;;;;;;;45.67;17.80;;;;;;;23.92;69.80;100298.78;5073907;28;21009;-84
2023/07/06 03:19:24;;;;;;;38.80;17.70;;;;;;;24.03;69.86;100314.59;5091918;28;20042;-86
2023/07/06 03:21:49;;;;;;;49.03;16.90;;;;;;;24.03;69.50;100317.34;5090613;28;20066;-85
2023/07/06 03:24:15;;;;;;;52.67;17.65;;;;;;;23.86;69.46;100295.00;5089784;28;20051;-88
2023/07/06 03:26:41;;;;;;;46.85;16.15;;;;;;;24.08;69.21;100321.09;5096896;28;20140;-84
2023/07/06 03:29:08;;;;;;;51.83;16.08;;;;;;;23.88;69.68;100292.91;5110956;28;20064;-84
2023/07/06 03:31:35;;;;;;;44.50;16.58;;;;;;;24.01;69.60;100313.94;5078958;28;20039;-86
2023/07/06 03:34:02;;;;;;;36.17;15.73;;;;;;;23.88;69.36;100300.28;5061041;28;20051;-87
2023/07/06 03:36:28;;;;;;;32.88;15.75;;;;;;;24.07;69.29;100330.41;5052288;28;20044;-84
2023/07/06 03:38:53;;;;;;;38.03;15.52;;;;;;;23.91;68.92;100302.59;5052617;28;20511;-85
2023/07/06 03:41:19;;;;;;;46.72;15.43;;;;;;;23.95;69.49;100298.34;5069711;28;20035;-84
2023/07/06 03:43:45;;;;;;;48.28;19.83;;;;;;;24.09;69.08;100322.78;5071336;28;20040;-85
2023/07/06 03:46:12;;;;;;;33.30;16.08;;;;;;;24.04;69.03;100305.25;5070584;28;20020;-89
2023/07/06 03:48:43;;;;;;;41.15;14.95;;;;;;;24.08;68.52;100304.63;5073988;28;20028;-88
2023/07/06 03:51:10;;;;;;;49.80;17.00;;;;;;;24.19;67.71;100312.19;5074396;28;20082;-80
2023/07/06 03:53:35;;;;;;;38.67;19.08;;;;;;;24.27;67.36;100308.34;5070666;28;20028;-85
2023/07/06 03:56:06;;;;;;;56.00;17.52;;;;;;;24.39;66.61;100320.31;5070231;28;20075;-83
2023/07/06 03:58:32;;;;;;;39.55;19.13;;;;;;;24.43;66.47;100323.47;5069419;28;20105;-88
2023/07/06 04:01:00;;;;;;;45.42;20.50;;;;;;;24.28;65.94;100301.75;5076992;28;20085;-87
2023/07/06 04:03:33;;;;;;;44.90;22.35;;;;;;;24.41;65.44;100320.91;5078152;28;20060;-86
2023/07/06 04:06:01;;;;;;;47.45;23.13;;;;;;;24.37;65.56;100314.19;5072632;28;20024;-84
2023/07/06 04:08:27;;;;;;;53.55;22.02;;;;;;;24.41;65.33;100317.31;5070570;28;20056;-87
2023/07/06 04:10:52;;;;;;;40.72;23.55;;;;;;;24.34;65.09;100311.91;5085286;28;20024;-86
2023/07/06 04:13:18;;;;;;;51.00;23.88;;;;;;;24.25;64.51;100294.81;5074057;28;20036;-82
2023/07/06 04:15:47;;;;;;;49.85;23.58;;;;;;;24.46;64.63;100329.38;5070244;28;20063;-83
2023/07/06 04:18:15;;;;;;;51.85;24.52;;;;;;;24.30;64.93;100307.91;5069745;28;20500;-83
2023/07/06 04:20:41;;;;;;;48.92;23.63;;;;;;;24.50;65.13;100335.22;5069915;28;20108;-82
2023/07/06 04:23:09;;;;;;;48.47;23.15;;;;;;;24.49;64.88;100315.16;5070525;28;20120;-85
2023/07/06 04:25:35;;;;;;;55.22;24.48;;;;;;;24.65;64.41;100328.34;5069587;28;20036;-80
2023/07/06 04:28:05;;;;;;;56.67;26.67;;;;;;;24.69;63.93;100324.09;5081674;28;20111;-81
2023/07/06 04:30:35;;;;;;;50.38;24.98;;;;;;;24.79;63.50;100329.09;5088243;28;20020;-84
2023/07/06 04:33:03;;;;;;;54.08;26.98;;;;;;;24.88;63.07;100334.13;5070113;28;20530;-80
2023/07/06 04:35:31;;;;;;;58.25;25.10;;;;;;;24.94;63.25;100331.53;5070477;28;20108;-79
2023/07/06 04:37:59;;;;;;;58.35;24.83;;;;;;;24.95;62.75;100344.25;5069668;28;20124;-82
2023/07/06 04:40:26;;;;;;;44.05;25.98;;;;;;;25.01;62.45;100337.84;5069780;28;20075;-82
2023/07/06 04:42:56;;;;;;;53.05;27.02;;;;;;;24.95;62.43;100327.72;5069993;28;20604;-85
2023/07/06 04:45:24;;;;;;;48.28;25.05;;;;;;;24.94;62.14;100326.03;5069543;28;20032;-86
2023/07/06 04:48:00;;;;;;;45.10;27.15;;;;;;;25.00;62.12;100338.91;5070755;28;20032;-85
2023/07/06 04:50:26;;;;;;;54.70;27.50;;;;;;;24.83;62.25;100309.19;5072763;28;20024;-86
2023/07/06 04:52:55;;;;;;;52.25;27.90;;;;;;;25.04;62.17;100345.63;5092434;28;20043;-85
2023/07/06 04:55:25;;;;;;;55.83;28.73;;;;;;;25.09;62.05;100351.28;5091222;28;20077;-82
2023/07/06 04:57:54;;;;;;;57.80;26.35;;;;;;;25.10;61.90;100351.09;5092001;28;20531;-81
2023/07/06 05:00:24;;;;;;;47.70;26.88;;;;;;;25.12;62.09;100353.59;5091944;28;20101;-86
2023/07/06 05:02:55;;;;;;;51.13;28.80;;;;;;;25.14;61.97;100345.94;5091918;28;20101;-84
2023/07/06 05:05:22;;;;;;;70.75;29.45;;;;;;;25.24;61.56;100349.03;5091697;28;20103;-83
2023/07/06 05:07:48;;;;;;;47.20;26.95;;;;;;;25.23;61.04;100336.31;5083828;28;20024;-82
2023/07/06 05:10:15;;;;;;;49.25;26.15;;;;;;;25.37;60.67;100349.75;5072183;28;20118;-86
2023/07/06 05:13:01;;;;;;;37.83;23.40;;;;;;;25.47;60.79;100359.41;5077711;28;20047;-93
2023/07/06 05:15:27;;;;;;;54.83;22.33;;;;;;;25.31;60.10;100316.78;5063888;28;20033;-86
2023/07/06 05:17:54;;;;;;;38.97;22.38;;;;;;;25.65;59.66;100354.78;5059288;28;20538;-89
2023/07/06 05:20:20;;;;;;;45.00;20.52;;;;;;;25.70;59.20;100343.06;5072534;28;20036;-80
2023/07/06 05:22:48;;;;;;;36.33;19.80;;;;;;;25.83;58.45;100337.41;5074389;28;20024;-88
2023/07/06 05:25:17;;;;;;;32.00;18.35;;;;;;;26.04;57.94;100347.09;5093564;28;20529;-83
2023/07/06 05:27:43;;;;;;;47.30;18.08;;;;;;;26.12;57.70;100341.22;5088583;28;20042;-84
2023/07/06 05:30:09;;;;;;;49.42;17.48;;;;;;;26.30;57.57;100344.81;5088671;28;20122;-83
2023/07/06 05:32:34;;;;;;;45.15;18.92;;;;;;;26.40;57.01;100349.78;5071563;28;20070;-83
2023/07/06 05:35:00;;;;;;;40.25;17.65;;;;;;;26.55;57.20;100346.59;5068411;28;20045;-79
2023/07/06 05:37:25;;;;;;;34.20;17.95;;;;;;;26.64;56.45;100334.97;5065399;28;20476;-79
2023/07/06 05:39:51;;;;;;;43.10;18.75;;;;;;;26.71;56.58;100352.28;5068500;28;20112;-86
2023/07/06 05:42:17;;;;;;;38.83;17.42;;;;;;;26.74;56.27;100345.44;5074925;28;20064;-82
2023/07/06 05:44:44;;;;;;;39.60;17.58;;;;;;;26.75;56.63;100336.09;5070024;28;20028;-78
2023/07/06 05:47:09;;;;;;;43.00;16.48;;;;;;;26.86;56.09;100325.09;5075538;28;20555;-87
2023/07/06 05:49:35;;;;;;;36.10;15.13;;;;;;;27.14;55.88;100342.88;5088927;28;20063;-81
2023/07/06 05:52:01;;;;;;;40.55;13.18;;;;;;;27.20;55.59;100339.16;5096641;28;20044;-84
2023/07/06 05:54:26;;;;;;;35.50;11.98;;;;;;;27.27;55.46;100340.72;5101380;28;20508;-82
2023/07/06 05:56:52;;;;;;;27.73;10.43;;;;;;;27.37;54.75;100345.63;5075777;28;20020;-84
2023/07/06 05:59:19;;;;;;;40.20;10.13;;;;;;;27.42;54.91;100331.94;5073442;28;20044;-82
2023/07/06 06:01:45;;;;;;;33.70;9.45;;;;;;;27.63;54.87;100345.16;5072242;28;20032;-82
2023/07/06 06:04:10;;;;;;;29.90;8.32;;;;;;;27.65;53.54;100326.41;5070065;28;20031;-78
2023/07/06 06:06:54;;;;;;;17.85;8.57;;;;;;;27.92;52.77;100335.81;5069333;28;20542;-83
2023/07/06 06:09:21;;;;;;;17.85;7.43;;;;;;;28.06;51.39;100340.03;5069220;28;20020;-81
2023/07/06 06:11:48;;;;;;;18.38;6.22;;;;;;;28.16;50.35;100344.94;5069915;28;20024;-79
2023/07/06 06:14:13;;;;;;;27.35;6.75;;;;;;;28.26;49.52;100338.72;5070126;28;20051;-85
2023/07/06 06:16:40;;;;;;;24.33;5.68;;;;;;;28.26;49.56;100316.59;5069271;28;20063;-84
2023/07/06 06:19:07;;;;;;;11.40;5.93;;;;;;;28.44;48.63;100341.31;5069901;28;20024;-82
2023/07/06 06:21:33;;;;;;;22.92;5.13;;;;;;;28.54;47.70;100335.94;5069124;28;20029;-83
2023/07/06 06:23:59;;;;;;;8.20;4.85;;;;;;;28.56;47.43;100328.25;5071437;28;20024;-81
2023/07/06 06:26:25;;;;;;;20.48;5.82;;;;;;;28.60;46.98;100332.19;5077548;28;20060;-79
2023/07/06 06:28:50;;;;;;;8.13;5.40;;;;;;;28.63;46.35;100328.91;5070051;28;20527;-87
2023/07/06 06:31:16;;;;;;;11.13;5.22;;;;;;;28.68;47.12;100326.28;5069042;28;20758;-80
2023/07/06 06:33:44;;;;;;;9.73;4.80;;;;;;;28.66;47.13;100322.91;5067378;28;20132;-78
2023/07/06 06:36:12;;;;;;;18.77;6.88;;;;;;;28.72;47.40;100321.91;5069413;28;20103;-80
2023/07/06 06:38:37;;;;;;;13.75;7.00;;;;;;;28.83;47.15;100315.47;5083089;28;20039;-80
2023/07/06 06:41:07;;;;;;;7.22;5.05;;;;;;;28.91;46.03;100317.81;5069686;28;20111;-81
2023/07/06 06:43:38;;;;;;;15.55;5.05;;;;;;;29.02;46.34;100311.34;5070344;28;20136;-89
2023/07/06 06:46:07;;;;;;;20.35;5.30;;;;;;;29.21;46.54;100314.66;5068185;28;20028;-79
2023/07/06 06:48:33;;;;;;;30.73;6.32;;;;;;;29.32;45.13;100318.47;5068298;28;20182;-81
2023/07/06 06:51:00;;;;;;;20.95;5.78;;;;;;;29.34;44.99;100314.34;5071910;28;20056;-81
2023/07/06 06:53:26;;;;;;;15.43;5.38;;;;;;;29.51;44.59;100311.53;5072301;28;20094;-82
2023/07/06 06:55:52;;;;;;;18.75;5.53;;;;;;;29.64;44.37;100313.91;5071541;28;20036;-82
2023/07/06 06:58:20;;;;;;;14.23;4.20;;;;;;;29.69;43.44;100294.59;5071083;28;20032;-77
2023/07/06 07:00:46;;;;;;;10.85;4.53;;;;;;;29.77;42.84;100301.59;5071914;28;20104;-81
2023/07/06 07:03:13;;;;;;;8.27;4.40;;;;;;;29.73;43.31;100295.75;5071774;28;20070;-81
2023/07/06 07:05:39;;;;;;;19.38;4.85;;;;;;;29.86;43.15;100294.53;5071370;28;20082;-82
2023/07/06 07:08:04;;;;;;;18.27;7.32;;;;;;;30.00;43.52;100301.38;5071695;28;20024;-82
2023/07/06 07:10:30;;;;;;;23.40;8.48;;;;;;;30.04;42.74;100286.72;5072098;28;20028;-83
2023/07/06 07:12:55;;;;;;;18.70;7.40;;;;;;;30.18;42.03;100293.53;5071503;28;20032;-81
2023/07/06 07:15:21;;;;;;;27.33;8.15;;;;;;;30.34;42.19;100308.41;5068771;28;20043;-83
2023/07/06 07:17:47;;;;;;;21.58;7.95;;;;;;;30.43;41.85;100309.63;5072370;28;20029;-81
2023/07/06 07:20:15;;;;;;;22.17;7.97;;;;;;;30.49;41.63;100308.56;5071702;28;20021;-81
2023/07/06 07:22:41;;;;;;;16.42;8.00;;;;;;;30.55;41.45;100295.59;5073461;28;20058;-81
2023/07/06 07:25:07;;;;;;;15.43;6.82;;;;;;;30.62;41.89;100297.03;5090282;28;20483;-85
2023/07/06 07:27:35;;;;;;;20.48;4.85;;;;;;;30.72;41.75;100293.53;5070828;28;20040;-82
2023/07/06 07:30:08;;;;;;;19.63;6.60;;;;;;;30.85;41.84;100281.97;5073054;28;20112;-83
2023/07/06 07:32:34;;;;;;;39.00;9.88;;;;;;;31.04;41.70;100296.31;5075008;28;20060;-91
2023/07/06 07:34:59;;;;;;;33.38;12.48;;;;;;;31.10;41.21;100296.06;5072665;28;20411;-88
2023/07/06 07:37:25;;;;;;;14.40;5.38;;;;;;;31.09;40.59;100274.97;5078295;28;20020;-88
2023/07/06 07:39:51;;;;;;;15.25;5.25;;;;;;;31.21;40.69;100292.25;5093052;28;20103;-81
2023/07/06 07:42:19;;;;;;;17.20;5.40;;;;;;;31.25;40.65;100285.03;5079798;28;20108;-79
2023/07/06 07:44:45;;;;;;;31.50;7.78;;;;;;;31.32;40.88;100281.19;5070944;28;20032;-81
2023/07/06 07:47:11;;;;;;;29.88;7.50;;;;;;;31.47;39.75;100297.94;5071088;28;20032;-80
2023/07/06 07:49:37;;;;;;;28.25;10.98;;;;;;;31.49;38.40;100273.53;5069650;28;20102;-80
2023/07/06 07:52:06;;;;;;;12.65;5.07;;;;;;;31.47;38.57;100279.31;5077596;28;20032;-79
2023/07/06 07:54:33;;;;;;;19.80;4.57;;;;;;;31.60;37.87;100283.59;5078130;28;20477;-81
2023/07/06 07:56:58;;;;;;;16.65;4.53;;;;;;;31.62;38.12;100282.22;5070728;28;20500;-81
2023/07/06 07:59:24;;;;;;;9.02;4.65;;;;;;;31.66;38.31;100285.28;5070842;28;20038;-79
2023/07/06 08:01:50;;;;;;;13.55;4.25;;;;;;;31.75;38.79;100280.88;5070409;28;20028;-81
2023/07/06 08:04:17;;;;;;;18.02;5.22;;;;;;;31.78;38.71;100267.25;5071736;28;20093;-82
2023/07/06 08:06:42;;;;;;;17.42;4.68;;;;;;;31.92;38.91;100275.09;5074544;28;20021;-79
2023/07/06 08:09:13;;;;;;;30.80;6.85;;;;;;;32.01;39.18;100263.19;5072637;28;20093;-84
2023/07/06 08:11:41;;;;;;;14.15;4.93;;;;;;;32.20;38.13;100272.69;5070875;28;20024;-83
2023/07/06 08:14:10;;;;;;;12.70;5.03;;;;;;;32.27;37.91;100270.47;5071852;28;20028;-81
2023/07/06 08:16:36;;;;;;;21.88;4.50;;;;;;;32.47;37.87;100277.19;5071338;28;20428;-85
2023/07/06 08:19:02;;;;;;;13.48;4.63;;;;;;;32.54;37.61;100274.94;5071963;28;20028;-83
2023/07/06 08:21:28;;;;;;;23.77;4.47;;;;;;;32.62;37.01;100277.22;5071373;28;20189;-86
2023/07/06 08:23:54;;;;;;;31.38;8.02;;;;;;;32.73;36.82;100276.13;5076100;28;20528;-85
2023/07/06 08:26:20;;;;;;;13.43;4.93;;;;;;;32.76;36.95;100259.69;5075663;28;20020;-86
2023/07/06 08:28:46;;;;;;;20.15;4.45;;;;;;;32.88;35.27;100251.03;5088027;28;20234;-76
2023/07/06 08:31:14;;;;;;;11.35;4.07;;;;;;;33.08;34.34;100273.34;5070419;28;20112;-80
2023/07/06 08:33:40;;;;;;;9.55;4.55;;;;;;;33.16;34.15;100274.69;5070880;28;20131;-83
2023/07/06 08:36:07;;;;;;;32.30;6.40;;;;;;;33.16;34.61;100236.50;5070178;28;20116;-81
2023/07/06 08:38:33;;;;;;;8.40;4.43;;;;;;;33.42;35.13;100263.19;5069875;28;20073;-83
2023/07/06 08:41:03;;;;;;;9.20;4.68;;;;;;;33.37;34.02;100257.63;5068004;28;20412;-81
2023/07/06 08:43:31;;;;;;;25.60;5.78;;;;;;;33.58;33.67;100263.13;5054810;28;20085;-85
2023/07/06 08:46:02;;;;;;;9.98;4.45;;;;;;;33.63;33.87;100263.16;5069100;28;20028;-76
2023/07/06 08:48:32;;;;;;;19.48;5.10;;;;;;;33.67;34.12;100264.28;5069840;28;20428;-77
2023/07/06 08:51:22;;;;;;;23.33;5.85;;;;;;;33.61;34.14;100266.22;5069193;28;20099;-76
2023/07/06 08:53:54;;;;;;;17.15;5.18;;;;;;;33.75;34.48;100261.72;5069423;28;20020;-77
2023/07/06 08:56:23;;;;;;;10.85;5.55;;;;;;;33.74;33.76;100260.03;5069191;28;20100;-78
2023/07/06 08:58:49;;;;;;;9.18;5.25;;;;;;;33.91;34.04;100259.69;5069342;28;20033;-80
2023/07/06 09:01:17;;;;;;;12.02;4.50;;;;;;;33.98;33.42;100254.59;5069173;28;20388;-77
2023/07/06 09:03:48;;;;;;;17.73;5.47;;;;;;;34.17;34.02;100250.06;5069261;28;20829;-76
2023/07/06 09:06:37;;;;;;;11.02;4.72;;;;;;;34.37;33.06;100263.84;5069605;28;20455;-79
2023/07/06 09:09:02;;;;;;;6.72;4.03;;;;;;;34.22;33.37;100244.44;5069567;28;20142;-76
2023/07/06 09:11:31;;;;;;;24.83;7.72;;;;;;;34.47;34.09;100258.19;5069147;28;20099;-79
2023/07/06 09:13:58;;;;;;;10.13;4.70;;;;;;;34.59;33.31;100265.38;5067938;28;20029;-76
2023/07/06 09:16:25;;;;;;;20.17;4.80;;;;;;;34.38;33.16;100265.53;5069482;28;20028;-80
2023/07/06 09:18:52;;;;;;;11.20;5.07;;;;;;;34.24;33.56;100261.75;5069183;28;20025;-77
2023/07/06 09:21:25;;;;;;;15.95;5.28;;;;;;;34.41;33.21;100266.91;5069001;28;20488;-76
2023/07/06 09:23:51;;;;;;;13.65;5.30;;;;;;;34.17;33.24;100269.59;5081697;28;20467;-77
2023/07/06 09:26:35;;;;;;;10.13;4.15;;;;;;;33.93;33.26;100268.59;5089057;28;20012;-76
2023/07/06 09:29:25;;;;;;;7.18;4.97;;;;;;;33.90;33.70;100266.38;5088233;28;20537;-76
2023/07/06 09:32:08;;;;;;;21.23;6.32;;;;;;;33.88;34.08;100268.63;5088825;28;20028;-76
2023/07/06 09:34:34;;;;;;;12.45;4.32;;;;;;;33.75;33.10;100270.09;5088645;28;20024;-78
2023/07/06 09:37:01;;;;;;;13.40;4.38;;;;;;;33.68;33.48;100261.19;5087852;28;20128;-77
2023/07/06 09:39:27;;;;;;;12.48;3.80;;;;;;;33.55;33.75;100253.38;5089670;28;20020;-76
2023/07/06 09:41:53;;;;;;;16.05;4.35;;;;;;;33.31;33.20;100247.63;5089165;28;20035;-78
2023/07/06 09:44:37;;;;;;;21.52;4.28;;;;;;;33.37;33.79;100248.44;5088771;28;20048;-79
2023/07/06 09:47:09;;;;;;;12.13;5.22;;;;;;;33.34;33.91;100244.25;5088784;28;20024;-79
2023/07/06 09:49:47;;;;;;;16.98;4.68;;;;;;;33.52;33.40;100241.97;5089151;28;20024;-78
2023/07/06 09:52:15;;;;;;;9.13;4.25;;;;;;;33.58;33.54;100241.66;5088907;28;20107;-77
2023/07/06 09:55:02;;;;;;;19.55;4.95;;;;;;;33.71;33.74;100245.81;5088807;28;20020;-77
2023/07/06 09:57:33;;;;;;;10.55;4.50;;;;;;;33.84;32.95;100248.84;5088860;28;20031;-79
2023/07/06 10:00:00;;;;;;;10.00;3.80;;;;;;;33.84;33.14;100245.19;5089507;28;20027;-82
2023/07/06 10:02:53;;;;;;;9.32;4.43;;;;;;;33.80;33.27;100249.69;5088881;28;20036;-77
2023/07/06 10:05:29;;;;;;;19.77;4.65;;;;;;;33.89;33.28;100251.59;5087443;28;20078;-77
2023/07/06 10:08:02;;;;;;;7.75;4.60;;;;;;;33.94;33.55;100248.75;5086374;28;20036;-80
2023/07/06 10:10:34;;;;;;;15.82;4.78;;;;;;;33.96;33.11;100256.84;5087461;28;20440;-78
2023/07/06 10:13:24;;;;;;;21.67;4.90;;;;;;;33.95;33.75;100241.22;5089144;28;20396;-77
2023/07/06 10:15:54;;;;;;;17.55;4.82;;;;;;;34.17;34.23;100236.09;5088953;28;20088;-77
2023/07/06 10:18:51;;;;;;;10.60;4.68;;;;;;;34.25;33.13;100243.84;5089206;28;20140;-77
2023/07/06 10:21:44;;;;;;;20.80;4.68;;;;;;;34.28;33.14;100237.69;5027174;28;20043;-77
2023/07/06 10:24:32;;;;;;;11.18;4.35;;;;;;;34.36;33.12;100231.50;4987955;28;20046;-77
2023/07/06 10:27:01;;;;;;;8.00;4.18;;;;;;;34.36;33.24;100228.69;4950527;29;20043;-80
2023/07/06 10:29:46;;;;;;;11.73;4.32;;;;;;;34.11;33.03;100226.09;4953488;29;20043;-79
2023/07/06 10:32:19;;;;;;;35.03;5.05;;;;;;;34.22;32.88;100213.72;4970946;28;20051;-82
2023/07/06 10:34:54;;;;;;;20.60;5.97;;;;;;;34.41;32.94;100227.81;4965533;29;20103;-76
2023/07/06 10:37:24;;;;;;;12.98;5.28;;;;;;;34.55;32.77;100226.03;4952831;28;20043;-77
2023/07/06 10:40:10;;;;;;;46.92;24.90;;;;;;;34.66;32.25;100224.00;4950064;29;20043;-75
2023/07/06 10:42:42;;;;;;;25.75;4.93;;;;;;;34.62;32.42;100204.19;4950654;29;20142;-75
2023/07/06 10:45:44;;;;;;;26.30;5.13;;;;;;;34.67;32.49;100218.13;4949830;29;20054;-78
2023/07/06 10:48:14;;;;;;;13.80;4.45;;;;;;;34.57;32.15;100208.97;4910297;29;20178;-76
2023/07/06 10:51:06;;;;;;;19.60;5.00;;;;;;;34.73;32.46;100216.13;4909968;29;20048;-77
2023/07/06 10:53:40;;;;;;;15.38;5.38;;;;;;;34.86;32.90;100205.06;4909541;29;20043;-76
2023/07/06 10:56:11;;;;;;;12.05;4.28;;;;;;;34.79;32.78;100214.94;4909871;29;20103;-77
2023/07/06 10:58:48;;;;;;;16.25;4.60;;;;;;;34.77;32.48;100194.84;4909812;29;20469;-77
2023/07/06 11:01:17;;;;;;;14.02;5.57;;;;;;;34.96;32.50;100198.53;4919926;29;20050;-77
2023/07/06 11:03:43;;;;;;;26.70;5.78;;;;;;;35.11;33.15;100205.94;4965514;28;20120;-75
2023/07/06 11:06:36;;;;;;;18.05;5.25;;;;;;;35.17;32.59;100208.41;5025541;28;20042;-78
2023/07/06 11:09:10;;;;;;;12.68;4.45;;;;;;;35.25;32.54;100178.97;5025753;28;20030;-77
2023/07/06 11:11:42;;;;;;;13.70;4.55;;;;;;;35.34;32.41;100194.78;5025668;28;20083;-77
2023/07/06 11:14:33;;;;;;;13.48;3.88;;;;;;;35.29;31.53;100183.63;5025240;28;20057;-79
2023/07/06 11:17:21;;;;;;;13.15;4.10;;;;;;;35.33;32.72;100183.88;5025577;28;20452;-76
2023/07/06 11:19:55;;;;;;;10.85;4.10;;;;;;;35.27;32.88;100177.53;5025499;28;20095;-76
2023/07/06 11:22:24;;;;;;;25.35;5.18;;;;;;;35.18;33.04;100172.88;5025151;28;20037;-76
2023/07/06 11:24:53;;;;;;;10.05;4.40;;;;;;;35.13;33.24;100159.81;5075880;28;20032;-83
2023/07/06 11:27:22;;;;;;;15.60;4.75;;;;;;;35.46;33.43;100170.00;5101442;28;20043;-84
2023/07/06 11:29:48;;;;;;;27.63;4.38;;;;;;;35.57;33.41;100170.72;5100782;28;20245;-81